createdAt,value
2022-08-06T00:00:18.261Z,19.86
2022-08-06T00:01:19.340Z,19.80
2022-08-06T00:02:22.572Z,19.79
2022-08-06T00:03:19.220Z,19.75
2022-08-06T00:04:18.210Z,19.72
2022-08-06T00:05:29.605Z,19.69
2022-08-06T00:06:19.182Z,19.66
2022-08-06T00:07:18.617Z,19.63
2022-08-06T00:08:18.160Z,19.58
2022-08-06T00:09:18.154Z,19.57
2022-08-06T00:10:18.141Z,19.50
2022-08-06T00:11:18.131Z,19.39
2022-08-06T00:12:19.105Z,19.35
2022-08-06T00:13:18.092Z,19.28
2022-08-06T00:14:18.075Z,19.21
2022-08-06T00:15:19.971Z,19.20
2022-08-06T00:16:36.264Z,19.17
2022-08-06T00:17:19.054Z,19.13
2022-08-06T00:18:18.140Z,19.08
2022-08-06T00:19:20.095Z,19.05
2022-08-06T00:20:25.946Z,19.01
2022-08-06T00:21:41.007Z,18.95
2022-08-06T00:22:27.935Z,18.86
2022-08-06T00:23:18.985Z,18.80
2022-08-06T00:24:28.227Z,18.76
2022-08-06T00:25:18.966Z,18.73
2022-08-06T00:26:17.928Z,18.67
2022-08-06T00:27:17.930Z,18.62
2022-08-06T00:28:18.906Z,18.59
2022-08-06T00:29:32.502Z,18.57
2022-08-06T00:30:20.928Z,18.52
2022-08-06T00:31:17.866Z,18.50
2022-08-06T00:32:17.846Z,18.43
2022-08-06T00:33:18.847Z,18.40
2022-08-06T00:34:18.066Z,18.40
2022-08-06T00:35:17.827Z,18.40
2022-08-06T00:36:17.796Z,18.39
2022-08-06T00:37:18.856Z,18.36
2022-08-06T00:38:17.767Z,18.34
2022-08-06T00:39:17.798Z,18.33
2022-08-06T00:40:24.314Z,18.31
2022-08-06T00:41:18.739Z,18.33
2022-08-06T00:42:17.719Z,18.28
2022-08-06T00:43:17.710Z,18.27
2022-08-06T00:44:30.522Z,18.22
2022-08-06T00:45:24.261Z,18.18
2022-08-06T00:46:18.676Z,18.15
2022-08-06T00:47:23.058Z,18.13
2022-08-06T00:48:37.171Z,18.10
2022-08-06T00:49:48.213Z,18.06
2022-08-06T00:50:18.640Z,18.02
2022-08-06T00:51:18.618Z,17.94
2022-08-06T00:52:19.513Z,17.92
2022-08-06T00:53:17.582Z,17.88
2022-08-06T00:54:17.908Z,17.85
2022-08-06T00:55:17.917Z,17.85
2022-08-06T00:56:17.542Z,17.82
2022-08-06T00:57:18.540Z,17.79
2022-08-06T00:58:18.523Z,17.76
2022-08-06T00:59:17.502Z,17.74
2022-08-06T01:00:29.586Z,17.71
2022-08-06T01:01:18.653Z,17.69
2022-08-06T01:02:17.510Z,17.66
2022-08-06T01:03:18.932Z,17.64
2022-08-06T01:04:18.441Z,17.62
2022-08-06T01:06:04.824Z,17.62
2022-08-06T01:06:56.480Z,17.59
2022-08-06T01:07:18.407Z,17.59
2022-08-06T01:08:17.377Z,17.55
2022-08-06T01:09:17.376Z,17.55
2022-08-06T01:10:17.346Z,17.53
2022-08-06T01:11:17.358Z,17.48
2022-08-06T01:12:17.414Z,17.46
2022-08-06T01:13:26.022Z,17.44
2022-08-06T01:14:39.018Z,17.40
2022-08-06T01:15:25.819Z,17.33
2022-08-06T01:16:29.372Z,17.30
2022-08-06T01:17:23.769Z,17.26
2022-08-06T01:18:18.260Z,17.26
2022-08-06T01:19:20.751Z,17.26
2022-08-06T01:21:57.375Z,17.20
2022-08-06T01:22:01.250Z,17.23
2022-08-06T01:22:32.977Z,17.17
2022-08-06T01:23:18.189Z,17.13
2022-08-06T01:24:17.171Z,17.10
2022-08-06T01:25:17.160Z,17.10
2022-08-06T01:26:19.875Z,17.07
2022-08-06T01:27:17.129Z,17.04
2022-08-06T01:28:17.109Z,16.99
2022-08-06T01:29:18.110Z,16.98
2022-08-06T01:30:20.124Z,16.95
2022-08-06T01:31:21.100Z,16.96
2022-08-06T01:32:17.063Z,16.93
2022-08-06T01:33:17.255Z,16.95
2022-08-06T01:34:18.032Z,16.90
2022-08-06T01:35:23.357Z,16.89
2022-08-06T01:36:18.011Z,16.88
2022-08-06T01:37:17.014Z,16.86
2022-08-06T01:38:17.852Z,16.80
2022-08-06T01:39:22.819Z,16.77
2022-08-06T01:40:18.009Z,16.75
2022-08-06T01:41:16.933Z,16.75
2022-08-06T01:42:16.942Z,16.74
2022-08-06T01:44:04.727Z,16.71
2022-08-06T01:44:17.905Z,16.74
2022-08-06T01:45:16.922Z,16.75
2022-08-06T01:46:16.973Z,16.75
2022-08-06T01:47:17.155Z,16.77
2022-08-06T01:48:16.842Z,16.77
2022-08-06T01:49:27.374Z,16.75
2022-08-06T01:50:17.825Z,16.75
2022-08-06T01:52:13.731Z,16.75
2022-08-06T01:52:17.806Z,16.74
2022-08-06T01:53:47.190Z,16.74
2022-08-06T01:54:19.254Z,16.77
2022-08-06T01:55:21.676Z,16.71
2022-08-06T01:56:23.086Z,16.68
2022-08-06T01:57:20.966Z,16.67
2022-08-06T01:58:27.021Z,16.63
2022-08-06T01:59:17.719Z,16.65
2022-08-06T02:00:16.696Z,16.65
2022-08-06T02:01:16.723Z,16.63
2022-08-06T02:02:18.437Z,16.65
2022-08-06T02:03:18.132Z,16.65
2022-08-06T02:04:17.638Z,16.63
2022-08-06T02:05:16.651Z,16.59
2022-08-06T02:06:16.617Z,16.59
2022-08-06T02:08:36.680Z,16.50
2022-08-06T02:08:39.230Z,16.58
2022-08-06T02:09:22.764Z,16.52
2022-08-06T02:10:17.551Z,16.53
2022-08-06T02:12:01.022Z,16.52
2022-08-06T02:12:18.593Z,16.53
2022-08-06T02:13:16.531Z,16.53
2022-08-06T02:14:16.519Z,16.53
2022-08-06T02:15:16.509Z,16.52
2022-08-06T02:16:16.491Z,16.50
2022-08-06T02:17:16.461Z,16.48
2022-08-06T02:18:16.471Z,16.49
2022-08-06T02:19:19.787Z,16.50
2022-08-06T02:20:35.704Z,16.52
2022-08-06T02:21:19.376Z,16.52
2022-08-06T02:22:27.047Z,16.52
2022-08-06T02:23:17.401Z,16.53
2022-08-06T02:24:16.380Z,16.52
2022-08-06T02:25:21.815Z,16.50
2022-08-06T02:26:17.361Z,16.49
2022-08-06T02:27:16.713Z,16.52
2022-08-06T02:28:25.048Z,16.53
2022-08-06T02:29:17.303Z,16.55
2022-08-06T02:30:16.303Z,16.53
2022-08-06T02:31:16.292Z,16.56
2022-08-06T02:32:18.590Z,16.53
2022-08-06T02:33:18.079Z,16.55
2022-08-06T02:34:16.255Z,16.52
2022-08-06T02:35:16.236Z,16.52
2022-08-06T02:36:26.537Z,16.48
2022-08-06T02:37:23.017Z,16.45
2022-08-06T02:38:17.198Z,16.48
2022-08-06T02:39:17.245Z,16.48
2022-08-06T02:40:16.246Z,16.49
2022-08-06T02:41:16.155Z,16.44
2022-08-06T02:42:16.144Z,16.42
2022-08-06T02:43:16.146Z,16.44
2022-08-06T02:44:16.124Z,16.44
2022-08-06T02:45:16.108Z,16.41
2022-08-06T02:46:16.088Z,16.44
2022-08-06T02:47:17.829Z,16.45
2022-08-06T02:48:22.282Z,16.45
2022-08-06T02:49:24.565Z,16.44
2022-08-06T02:50:17.038Z,16.40
2022-08-06T02:51:19.200Z,16.40
2022-08-06T02:52:32.429Z,16.38
2022-08-06T02:53:24.634Z,16.37
2022-08-06T02:54:16.997Z,16.33
2022-08-06T02:55:15.978Z,16.33
2022-08-06T02:56:15.963Z,16.31
2022-08-06T02:57:16.433Z,16.30
2022-08-06T02:58:15.949Z,16.30
2022-08-06T02:59:15.930Z,16.27
2022-08-06T03:00:15.910Z,16.27
2022-08-06T03:01:22.113Z,16.27
2022-08-06T03:02:16.885Z,16.27
2022-08-06T03:03:21.558Z,16.25
2022-08-06T03:04:16.851Z,16.22
2022-08-06T03:05:15.850Z,16.20
2022-08-06T03:06:15.842Z,16.22
2022-08-06T03:07:27.421Z,16.23
2022-08-06T03:08:16.811Z,16.20
2022-08-06T03:09:16.375Z,16.20
2022-08-06T03:10:15.783Z,16.20
2022-08-06T03:11:15.770Z,16.18
2022-08-06T03:12:39.723Z,16.16
2022-08-06T03:13:16.744Z,16.15
2022-08-06T03:15:04.782Z,16.14
2022-08-06T03:15:57.586Z,16.11
2022-08-06T03:16:23.608Z,16.07
2022-08-06T03:17:16.692Z,16.07
2022-08-06T03:18:16.094Z,16.04
2022-08-06T03:19:53.940Z,16.00
2022-08-06T03:20:17.791Z,16.03
2022-08-06T03:21:15.634Z,16.04
2022-08-06T03:22:18.594Z,16.01
2022-08-06T03:23:16.604Z,15.99
2022-08-06T03:24:15.595Z,15.97
2022-08-06T03:25:15.700Z,15.96
2022-08-06T03:26:15.564Z,15.96
2022-08-06T03:27:16.862Z,15.94
2022-08-06T03:28:20.508Z,15.94
2022-08-06T03:29:16.531Z,15.92
2022-08-06T03:30:33.041Z,15.89
2022-08-06T03:31:16.506Z,15.92
2022-08-06T03:32:25.054Z,15.89
2022-08-06T03:33:41.812Z,15.92
2022-08-06T03:34:16.477Z,15.86
2022-08-06T03:35:41.608Z,15.86
2022-08-06T03:36:17.273Z,15.86
2022-08-06T03:37:16.494Z,15.85
2022-08-06T03:38:15.428Z,15.85
2022-08-06T03:39:15.397Z,15.84
2022-08-06T03:40:15.387Z,15.86
2022-08-06T03:41:17.913Z,15.88
2022-08-06T03:42:15.369Z,15.86
2022-08-06T03:43:16.249Z,15.89
2022-08-06T03:44:16.340Z,15.89
2022-08-06T03:45:35.472Z,15.88
2022-08-06T03:46:16.299Z,15.86
2022-08-06T03:47:15.471Z,15.85
2022-08-06T03:48:15.291Z,15.89
2022-08-06T03:49:16.270Z,15.92
2022-08-06T04:03:02.943Z,15.68
2022-08-06T04:04:00.334Z,15.68
2022-08-06T04:05:01.313Z,15.66
2022-08-06T04:06:00.301Z,15.63
2022-08-06T04:07:00.640Z,15.63
2022-08-06T04:08:03.534Z,15.61
2022-08-06T04:09:00.271Z,15.63
2022-08-06T04:10:01.264Z,15.64
2022-08-06T04:11:00.272Z,15.61
2022-08-06T04:12:36.299Z,15.61
2022-08-06T04:13:39.020Z,15.61
2022-08-06T04:14:07.228Z,15.60
2022-08-06T04:15:04.616Z,15.60
2022-08-06T04:16:01.977Z,15.60
2022-08-06T04:17:00.158Z,15.60
2022-08-06T04:18:00.144Z,15.61
2022-08-06T04:19:00.154Z,15.60
2022-08-06T04:20:00.166Z,15.59
2022-08-06T04:21:19.931Z,15.59
2022-08-06T04:22:57.519Z,15.57
2022-08-06T04:23:08.855Z,15.57
2022-08-06T04:24:01.087Z,15.59
2022-08-06T04:25:00.069Z,15.59
2022-08-06T04:26:00.035Z,15.59
2022-08-06T04:27:00.183Z,15.60
2022-08-06T04:28:00.018Z,15.57
2022-08-06T04:28:59.998Z,15.59
2022-08-06T04:30:02.440Z,15.59
2022-08-06T04:30:59.979Z,15.59
2022-08-06T04:32:19.057Z,15.56
2022-08-06T04:33:01.759Z,15.54
2022-08-06T04:33:59.938Z,15.56
2022-08-06T04:36:04.947Z,15.54
2022-08-06T04:36:06.983Z,15.56
2022-08-06T04:37:01.715Z,15.54
2022-08-06T04:38:00.929Z,15.56
2022-08-06T04:38:59.902Z,15.56
2022-08-06T04:39:59.934Z,15.56
2022-08-06T04:41:03.479Z,15.54
2022-08-06T04:42:05.777Z,15.56
2022-08-06T04:43:00.820Z,15.54
2022-08-06T04:43:59.799Z,15.54
2022-08-06T04:45:00.655Z,15.54
2022-08-06T04:46:15.643Z,15.51
2022-08-06T04:47:00.826Z,15.51
2022-08-06T04:47:59.751Z,15.52
2022-08-06T04:49:01.644Z,15.49
2022-08-06T04:50:04.403Z,15.51
2022-08-06T04:51:00.742Z,15.48
2022-08-06T04:52:35.649Z,15.48
2022-08-06T04:53:00.702Z,15.46
2022-08-06T04:53:59.672Z,15.45
2022-08-06T04:54:59.689Z,15.48
2022-08-06T04:56:03.833Z,15.45
2022-08-06T04:56:59.643Z,15.46
2022-08-06T04:58:08.169Z,15.49
2022-08-06T04:59:00.612Z,15.49
2022-08-06T04:59:59.602Z,15.51
2022-08-06T05:01:10.539Z,15.51
2022-08-06T05:02:01.063Z,15.51
2022-08-06T05:02:59.554Z,15.54
2022-08-06T05:04:08.530Z,15.54
2022-08-06T05:05:00.551Z,15.51
2022-08-06T05:05:59.525Z,15.51
2022-08-06T05:06:59.510Z,15.52
2022-08-06T05:08:01.304Z,15.52
2022-08-06T05:08:59.480Z,15.52
2022-08-06T05:09:59.477Z,15.52
2022-08-06T05:10:59.456Z,15.49
2022-08-06T05:11:59.669Z,15.49
2022-08-06T05:12:59.429Z,15.52
2022-08-06T05:13:59.426Z,15.56
2022-08-06T05:14:59.426Z,15.59
2022-08-06T05:15:59.407Z,15.60
2022-08-06T05:16:59.378Z,15.59
2022-08-06T05:17:59.912Z,15.63
2022-08-06T05:19:21.387Z,15.64
2022-08-06T05:20:00.361Z,15.67
2022-08-06T05:20:59.328Z,15.72
2022-08-06T05:22:10.259Z,15.72
2022-08-06T05:23:01.200Z,15.70
2022-08-06T05:23:59.289Z,15.72
2022-08-06T05:25:03.229Z,15.74
2022-08-06T05:26:00.268Z,15.72
2022-08-06T05:26:59.258Z,15.74
2022-08-06T05:28:09.806Z,15.75
2022-08-06T05:29:00.229Z,15.76
2022-08-06T05:29:59.210Z,15.79
2022-08-06T05:30:59.416Z,15.79
2022-08-06T05:31:59.190Z,15.82
2022-08-06T05:32:59.179Z,15.82
2022-08-06T05:33:59.159Z,15.84
2022-08-06T05:34:59.139Z,15.85
2022-08-06T05:36:02.267Z,15.88
2022-08-06T05:36:59.131Z,15.85
2022-08-06T05:38:01.513Z,15.85
2022-08-06T05:39:00.135Z,15.85
2022-08-06T05:39:59.534Z,15.86
2022-08-06T05:40:59.124Z,15.88
2022-08-06T05:41:59.831Z,15.89
2022-08-06T05:42:59.042Z,15.89
2022-08-06T05:44:01.426Z,15.89
2022-08-06T05:45:00.664Z,15.92
2022-08-06T05:45:59.032Z,15.92
2022-08-06T05:46:59.002Z,15.93
2022-08-06T05:47:58.983Z,15.92
2022-08-06T05:48:58.973Z,15.92
2022-08-06T05:50:00.934Z,15.93
2022-08-06T05:50:58.943Z,15.96
2022-08-06T05:51:59.377Z,15.97
2022-08-06T05:52:58.924Z,16.00
2022-08-06T05:54:03.281Z,16.01
2022-08-06T05:54:59.893Z,16.04
2022-08-06T05:55:58.873Z,16.07
2022-08-06T05:57:04.614Z,16.07
2022-08-06T05:58:00.068Z,16.11
2022-08-06T05:58:58.855Z,16.11
2022-08-06T05:59:59.328Z,16.09
2022-08-06T06:00:58.826Z,16.07
2022-08-06T06:01:58.808Z,16.09
2022-08-06T06:02:58.833Z,16.12
2022-08-06T06:03:58.875Z,16.12
2022-08-06T06:06:02.184Z,16.14
2022-08-06T06:06:10.843Z,16.16
2022-08-06T06:07:02.368Z,16.22
2022-08-06T06:08:09.352Z,16.23
2022-08-06T06:09:01.932Z,16.25
2022-08-06T06:10:03.788Z,16.27
2022-08-06T06:10:59.845Z,16.31
2022-08-06T06:12:02.100Z,16.34
2022-08-06T06:12:58.658Z,16.37
2022-08-06T06:13:59.971Z,16.42
2022-08-06T06:14:58.639Z,16.48
2022-08-06T06:16:01.796Z,16.50
2022-08-06T06:16:59.599Z,16.53
2022-08-06T06:18:01.900Z,16.58
2022-08-06T06:18:58.591Z,16.59
2022-08-06T06:19:58.567Z,16.63
2022-08-06T06:21:03.511Z,16.65
2022-08-06T06:21:59.559Z,16.68
2022-08-06T06:22:58.538Z,16.71
2022-08-06T06:23:58.530Z,16.73
2022-08-06T06:24:58.510Z,16.75
2022-08-06T06:25:58.509Z,16.77
2022-08-06T06:26:58.481Z,16.80
2022-08-06T06:27:58.472Z,16.83
2022-08-06T06:28:58.460Z,16.81
2022-08-06T06:30:02.270Z,16.85
2022-08-06T06:31:02.185Z,16.89
2022-08-06T06:32:07.131Z,16.90
2022-08-06T06:32:59.514Z,16.92
2022-08-06T06:33:59.805Z,16.90
2022-08-06T06:34:58.370Z,16.89
2022-08-06T06:35:58.385Z,16.92
2022-08-06T06:36:58.572Z,16.92
2022-08-06T06:37:58.958Z,16.92
2022-08-06T06:38:58.367Z,16.90
2022-08-06T06:39:59.006Z,16.92
2022-08-06T06:41:02.895Z,16.89
2022-08-06T06:41:59.294Z,16.86
2022-08-06T06:42:58.280Z,16.86
2022-08-06T06:43:58.271Z,16.85
2022-08-06T06:45:08.128Z,16.86
2022-08-06T06:46:06.224Z,16.85
2022-08-06T06:46:59.227Z,16.83
2022-08-06T06:47:59.735Z,16.80
2022-08-06T06:48:58.194Z,16.77
2022-08-06T06:50:02.857Z,16.78
2022-08-06T06:51:01.198Z,16.80
2022-08-06T06:52:08.415Z,16.80
2022-08-06T06:52:59.145Z,16.81
2022-08-06T06:54:06.209Z,16.85
2022-08-06T06:55:00.200Z,16.85
2022-08-06T06:56:03.937Z,16.88
2022-08-06T06:56:59.093Z,16.90
2022-08-06T06:57:58.088Z,16.93
2022-08-06T06:58:58.076Z,16.92
2022-08-06T07:00:03.906Z,16.95
2022-08-06T07:01:12.181Z,16.99
2022-08-06T07:02:00.432Z,16.99
2022-08-06T07:02:58.060Z,16.99
2022-08-06T07:03:58.084Z,17.00
2022-08-06T07:04:59.265Z,17.00
2022-08-06T07:06:04.561Z,17.04
2022-08-06T07:06:59.736Z,17.07
2022-08-06T07:07:58.957Z,17.10
2022-08-06T07:08:57.940Z,17.08
2022-08-06T07:09:59.946Z,17.10
2022-08-06T07:10:57.912Z,17.07
2022-08-06T07:12:02.814Z,17.08
2022-08-06T07:12:58.888Z,17.14
2022-08-06T07:13:58.940Z,17.18
2022-08-06T07:14:58.479Z,17.26
2022-08-06T07:15:57.841Z,17.29
2022-08-06T07:16:57.839Z,17.28
2022-08-06T07:17:59.549Z,17.26
2022-08-06T07:18:58.822Z,17.25
2022-08-06T07:19:57.822Z,17.22
2022-08-06T07:20:57.791Z,17.20
2022-08-06T07:21:57.771Z,17.20
2022-08-06T07:24:04.503Z,17.22
2022-08-06T07:24:07.213Z,17.25
2022-08-06T07:24:58.774Z,17.25
2022-08-06T07:25:59.506Z,17.22
2022-08-06T07:26:57.701Z,17.22
2022-08-06T07:27:57.714Z,17.26
2022-08-06T07:29:03.566Z,17.29
2022-08-06T07:30:00.309Z,17.30
2022-08-06T07:31:03.398Z,17.33
2022-08-06T07:31:58.653Z,17.33
2022-08-06T07:32:57.816Z,17.38
2022-08-06T07:34:00.778Z,17.43
2022-08-06T07:34:57.614Z,17.48
2022-08-06T07:35:57.594Z,17.51
2022-08-06T07:36:57.574Z,17.53
2022-08-06T07:37:57.577Z,17.51
2022-08-06T07:38:57.603Z,17.54
2022-08-06T07:39:57.534Z,17.57
2022-08-06T07:40:57.517Z,17.59
2022-08-06T07:42:10.664Z,17.67
2022-08-06T07:42:58.502Z,17.70
2022-08-06T07:43:57.488Z,17.74
2022-08-06T07:44:57.474Z,17.76
2022-08-06T07:45:57.489Z,17.84
2022-08-06T07:46:57.473Z,17.89
2022-08-06T07:47:57.794Z,17.95
2022-08-06T07:48:57.437Z,18.02
2022-08-06T07:49:59.737Z,18.07
2022-08-06T07:50:57.397Z,18.12
2022-08-06T07:51:57.389Z,18.17
2022-08-06T07:52:57.391Z,18.21
2022-08-06T07:54:01.602Z,18.27
2022-08-06T07:54:58.363Z,18.27
2022-08-06T07:55:57.339Z,18.34
2022-08-06T07:57:01.692Z,18.37
2022-08-06T07:57:58.791Z,18.43
2022-08-06T07:58:57.584Z,18.49
2022-08-06T07:59:57.280Z,18.58
2022-08-06T08:00:57.268Z,18.59
2022-08-06T08:01:57.307Z,18.59
2022-08-06T08:02:58.236Z,18.61
2022-08-06T08:03:59.418Z,18.65
2022-08-06T08:04:57.217Z,18.72
2022-08-06T08:06:00.455Z,18.76
2022-08-06T08:06:57.200Z,18.82
2022-08-06T08:07:58.435Z,18.90
2022-08-06T08:08:57.243Z,18.92
2022-08-06T08:10:01.459Z,18.94
2022-08-06T08:10:58.144Z,18.99
2022-08-06T08:12:26.387Z,18.98
2022-08-06T08:13:03.535Z,18.98
2022-08-06T08:13:58.104Z,19.06
2022-08-06T08:14:59.447Z,19.10
2022-08-06T08:15:57.083Z,19.17
2022-08-06T08:16:57.064Z,19.21
2022-08-06T08:17:58.652Z,19.29
2022-08-06T08:18:57.053Z,19.32
2022-08-06T08:19:57.023Z,19.38
2022-08-06T08:20:57.006Z,19.40
2022-08-06T08:21:56.998Z,19.43
2022-08-06T08:22:56.984Z,19.46
2022-08-06T08:23:56.984Z,19.42
2022-08-06T08:24:56.957Z,19.47
2022-08-06T08:25:56.946Z,19.48
2022-08-06T08:27:17.148Z,19.51
2022-08-06T08:27:57.915Z,19.54
2022-08-06T08:28:56.907Z,19.60
2022-08-06T08:29:59.735Z,19.63
2022-08-06T08:30:56.876Z,19.69
2022-08-06T08:32:00.194Z,19.70
2022-08-06T08:32:56.857Z,19.78
2022-08-06T08:33:56.847Z,19.84
2022-08-06T08:34:57.539Z,19.90
2022-08-06T08:36:00.953Z,19.93
2022-08-06T08:36:56.797Z,20.00
2022-08-06T08:37:56.790Z,20.08
2022-08-06T08:38:56.811Z,20.12
2022-08-06T08:39:56.814Z,20.18
2022-08-06T08:40:56.739Z,20.23
2022-08-06T08:41:56.745Z,20.28
2022-08-06T08:42:56.719Z,20.33
2022-08-06T08:44:00.227Z,20.39
2022-08-06T08:44:57.706Z,20.42
2022-08-06T08:45:56.688Z,20.47
2022-08-06T08:46:57.984Z,20.50
2022-08-06T08:47:57.962Z,20.50
2022-08-06T08:48:56.645Z,20.51
2022-08-06T08:49:56.639Z,20.53
2022-08-06T08:50:56.615Z,20.53
2022-08-06T08:51:56.611Z,20.50
2022-08-06T08:52:56.591Z,20.53
2022-08-06T08:53:58.568Z,20.58
2022-08-06T08:54:56.592Z,20.56
2022-08-06T08:57:05.969Z,20.61
2022-08-06T08:57:07.499Z,20.56
2022-08-06T08:59:00.870Z,20.79
2022-08-06T08:59:02.318Z,20.69
2022-08-06T09:00:01.655Z,20.86
2022-08-06T09:00:57.553Z,20.90
2022-08-06T09:01:57.139Z,20.96
2022-08-06T09:02:57.336Z,21.01
2022-08-06T09:03:56.466Z,21.06
2022-08-06T09:04:58.566Z,21.11
2022-08-06T09:05:56.434Z,21.16
2022-08-06T09:06:56.429Z,21.23
2022-08-06T09:08:01.667Z,21.29
2022-08-06T09:09:01.255Z,21.35
2022-08-06T09:10:01.575Z,21.41
2022-08-06T09:10:57.364Z,21.44
2022-08-06T09:12:03.017Z,21.50
2022-08-06T09:12:57.342Z,21.56
2022-08-06T09:13:57.368Z,21.60
2022-08-06T09:14:56.337Z,21.61
2022-08-06T09:15:56.315Z,21.67
2022-08-06T09:16:56.297Z,21.75
2022-08-06T09:18:25.436Z,21.82
2022-08-06T09:18:57.257Z,21.92
2022-08-06T09:19:56.288Z,21.98
2022-08-06T09:20:58.006Z,22.04
2022-08-06T09:21:56.228Z,22.09
2022-08-06T09:22:56.443Z,22.12
2022-08-06T09:23:58.137Z,22.13
2022-08-06T09:24:56.191Z,22.13
2022-08-06T09:25:58.785Z,22.17
2022-08-06T09:26:56.168Z,22.20
2022-08-06T09:27:59.425Z,22.23
2022-08-06T09:28:56.129Z,22.27
2022-08-06T09:30:03.615Z,22.25
2022-08-06T09:30:57.130Z,22.25
2022-08-06T09:31:56.091Z,22.27
2022-08-06T09:32:57.376Z,22.32
2022-08-06T09:34:19.010Z,22.38
2022-08-06T09:34:57.061Z,22.46
2022-08-06T09:35:56.041Z,22.44
2022-08-06T09:36:57.362Z,22.46
2022-08-06T09:37:56.421Z,22.39
2022-08-06T09:38:56.059Z,22.39
2022-08-06T09:40:05.319Z,22.46
2022-08-06T09:40:56.992Z,22.53
2022-08-06T09:41:55.964Z,22.62
2022-08-06T09:42:55.950Z,22.72
2022-08-06T09:44:03.816Z,22.69
2022-08-06T09:44:56.924Z,22.64
2022-08-06T09:45:56.459Z,22.71
2022-08-06T09:46:55.906Z,22.82
2022-08-06T10:04:04.388Z,23.12
2022-08-06T10:04:36.329Z,23.24
2022-08-06T10:05:29.952Z,23.38
2022-08-06T10:06:27.276Z,23.46
2022-08-06T10:07:27.452Z,23.53
2022-08-06T10:08:28.248Z,23.58
2022-08-06T10:09:44.688Z,23.61
2022-08-06T10:10:33.350Z,23.71
2022-08-06T10:11:28.218Z,23.77
2022-08-06T10:12:28.190Z,23.83
2022-08-06T10:13:27.188Z,23.90
2022-08-06T10:14:27.168Z,24.02
2022-08-06T10:15:57.181Z,24.05
2022-08-06T10:16:28.862Z,24.14
2022-08-06T10:17:49.819Z,24.14
2022-08-06T10:18:56.967Z,24.19
2022-08-06T10:19:36.226Z,24.14
2022-08-06T10:20:28.093Z,24.08
2022-08-06T10:21:33.478Z,23.94
2022-08-06T10:22:28.060Z,23.87
2022-08-06T10:23:27.066Z,23.86
2022-08-06T10:24:42.307Z,23.86
2022-08-06T10:25:29.895Z,23.90
2022-08-06T10:26:30.901Z,23.97
2022-08-06T10:27:36.578Z,24.08
2022-08-06T10:28:27.971Z,24.22
2022-08-06T10:29:26.983Z,24.34
2022-08-06T10:30:26.953Z,24.41
2022-08-06T10:31:26.963Z,24.54
2022-08-06T10:32:30.620Z,24.71
2022-08-06T10:33:32.488Z,24.85
2022-08-06T10:34:31.107Z,24.92
2022-08-06T10:35:29.767Z,25.01
2022-08-06T10:36:27.028Z,25.12
2022-08-06T10:37:49.382Z,25.22
2022-08-06T10:38:34.413Z,25.28
2022-08-06T10:40:08.673Z,25.34
2022-08-06T10:40:30.479Z,25.38
2022-08-06T10:41:59.454Z,25.38
2022-08-06T10:42:27.848Z,25.38
2022-08-06T10:43:27.016Z,25.38
2022-08-06T10:44:28.678Z,25.47
2022-08-06T10:45:27.802Z,25.52
2022-08-06T10:46:28.768Z,25.54
2022-08-06T10:48:58.492Z,25.54
2022-08-06T10:50:23.190Z,25.61
2022-08-06T10:50:24.305Z,25.39
2022-08-06T10:50:38.455Z,25.38
2022-08-06T10:51:53.316Z,25.43
2022-08-06T10:52:27.678Z,25.52
2022-08-06T10:54:02.479Z,25.59
2022-08-06T10:54:27.642Z,25.61
2022-08-06T10:55:34.179Z,25.68
2022-08-06T10:56:28.454Z,25.77
2022-08-06T10:57:35.791Z,25.90
2022-08-06T10:58:27.598Z,25.94
2022-08-06T10:59:41.844Z,25.98
2022-08-06T11:00:27.570Z,25.97
2022-08-06T11:01:26.570Z,26.05
2022-08-06T11:02:27.551Z,25.74
2022-08-06T11:03:27.546Z,25.71
2022-08-06T11:04:26.563Z,25.69
2022-08-06T11:05:26.521Z,25.75
2022-08-06T11:06:28.059Z,25.83
2022-08-06T11:08:09.609Z,25.87
2022-08-06T11:08:40.406Z,26.02
2022-08-06T11:09:59.415Z,26.20
2022-08-06T11:10:28.507Z,26.28
2022-08-06T11:11:26.435Z,26.39
2022-08-06T11:12:26.446Z,26.46
2022-08-06T11:13:37.221Z,26.59
2022-08-06T11:14:31.724Z,26.68
2022-08-06T11:15:26.385Z,26.76
2022-08-06T11:16:27.752Z,26.83
2022-08-06T11:17:27.450Z,26.84
2022-08-06T11:18:28.345Z,26.86
2022-08-06T11:19:26.333Z,26.94
2022-08-06T11:20:26.317Z,26.99
2022-08-06T11:21:26.317Z,26.99
2022-08-06T11:22:31.937Z,27.05
2022-08-06T11:23:57.964Z,27.09
2022-08-06T11:24:27.275Z,27.10
2022-08-06T11:25:27.235Z,27.09
2022-08-06T11:26:26.248Z,27.19
2022-08-06T11:27:26.435Z,27.28
2022-08-06T11:28:27.235Z,27.41
2022-08-06T11:29:55.731Z,27.58
2022-08-06T11:30:27.189Z,27.74
2022-08-06T11:31:26.169Z,27.86
2022-08-06T11:32:26.170Z,27.98
2022-08-06T11:33:26.181Z,28.04
2022-08-06T11:34:27.192Z,28.17
2022-08-06T11:35:27.121Z,28.26
2022-08-06T11:36:26.120Z,28.33
2022-08-06T11:38:03.729Z,28.38
2022-08-06T11:38:27.204Z,28.36
2022-08-06T11:39:34.558Z,28.31
2022-08-06T11:40:27.121Z,28.33
2022-08-06T11:41:55.219Z,28.43
2022-08-06T11:42:27.280Z,28.53
2022-08-06T11:43:27.023Z,28.66
2022-08-06T11:44:27.254Z,28.75
2022-08-06T11:46:21.209Z,28.80
2022-08-06T11:46:31.967Z,28.93
2022-08-06T11:47:36.977Z,29.03
2022-08-06T11:48:33.125Z,29.10
2022-08-06T11:49:26.945Z,29.25
2022-08-06T11:50:27.488Z,29.41
2022-08-06T11:51:25.916Z,29.53
2022-08-06T11:52:25.908Z,29.40
2022-08-06T11:53:26.066Z,29.40
2022-08-06T11:54:28.496Z,29.50
2022-08-06T11:55:27.015Z,29.56
2022-08-06T11:56:27.861Z,29.59
2022-08-06T11:57:41.619Z,29.72
2022-08-06T11:58:26.857Z,29.71
2022-08-06T11:59:25.828Z,29.56
2022-08-06T12:00:25.836Z,29.01
2022-08-06T12:01:33.562Z,28.90
2022-08-06T12:02:26.865Z,29.08
2022-08-06T12:03:25.782Z,29.18
2022-08-06T12:04:26.787Z,29.29
2022-08-06T12:05:25.772Z,29.43
2022-08-06T12:06:29.188Z,29.57
2022-08-06T12:07:33.131Z,29.72
2022-08-06T12:08:39.113Z,29.82
2022-08-06T12:09:35.738Z,29.92
2022-08-06T12:10:29.135Z,30.00
2022-08-06T12:11:25.661Z,30.15
2022-08-06T12:12:26.621Z,30.31
2022-08-06T12:13:25.654Z,30.36
2022-08-06T12:14:33.333Z,30.50
2022-08-06T12:15:53.059Z,30.62
2022-08-06T12:16:26.829Z,30.74
2022-08-06T12:17:44.950Z,30.87
2022-08-06T12:18:29.787Z,30.99
2022-08-06T12:19:26.594Z,31.04
2022-08-06T12:20:35.095Z,31.18
2022-08-06T12:21:26.756Z,31.17
2022-08-06T12:22:25.593Z,31.21
2022-08-06T12:23:53.991Z,31.31
2022-08-06T12:24:35.644Z,31.33
2022-08-06T12:25:26.516Z,31.11
2022-08-06T12:26:33.366Z,30.99
2022-08-06T12:27:26.671Z,31.02
2022-08-06T12:28:25.476Z,31.18
2022-08-06T12:29:41.640Z,31.28
2022-08-06T12:30:36.802Z,31.40
2022-08-06T12:31:35.908Z,31.40
2022-08-06T12:32:26.431Z,31.35
2022-08-06T12:33:25.418Z,31.38
2022-08-06T12:34:27.711Z,30.94
2022-08-06T12:35:25.389Z,30.49
2022-08-06T12:36:32.186Z,30.59
2022-08-06T12:37:26.492Z,30.86
2022-08-06T12:38:25.364Z,31.18
2022-08-06T12:39:43.168Z,31.38
2022-08-06T12:40:26.464Z,31.64
2022-08-06T12:41:45.455Z,31.93
2022-08-06T12:42:54.165Z,32.17
2022-08-06T12:43:42.791Z,32.30
2022-08-06T12:44:56.114Z,32.30
2022-08-06T12:46:04.920Z,32.42
2022-08-06T12:46:29.751Z,32.32
2022-08-06T12:48:04.321Z,32.30
2022-08-06T12:48:26.685Z,32.24
2022-08-06T12:49:25.241Z,32.18
2022-08-06T12:50:30.318Z,32.20
2022-08-06T12:51:27.364Z,32.07
2022-08-06T12:52:29.987Z,32.07
2022-08-06T12:53:25.166Z,32.36
2022-08-06T12:54:26.257Z,32.49
2022-08-06T12:55:25.148Z,32.77
2022-08-06T12:56:29.611Z,33.07
2022-08-06T12:57:28.660Z,33.37
2022-08-06T12:58:39.800Z,33.68
2022-08-06T12:59:26.077Z,34.02
2022-08-06T13:00:29.438Z,34.42
2022-08-06T13:02:08.533Z,34.63
2022-08-06T13:02:27.144Z,34.91
2022-08-06T13:03:25.030Z,34.84
2022-08-06T13:04:30.508Z,34.96
2022-08-06T13:05:26.009Z,35.17
2022-08-06T13:06:31.835Z,35.39
2022-08-06T13:07:26.197Z,35.40
2022-08-06T13:08:25.990Z,35.50
2022-08-06T13:09:24.979Z,35.81
2022-08-06T13:10:34.010Z,36.20
2022-08-06T13:11:25.929Z,36.39
2022-08-06T13:12:44.685Z,36.61
2022-08-06T13:14:14.778Z,36.31
2022-08-06T13:14:25.891Z,35.23
2022-08-06T13:15:24.882Z,34.41
2022-08-06T13:16:28.431Z,34.58
2022-08-06T13:17:55.141Z,35.03
2022-08-06T13:18:41.727Z,35.67
2022-08-06T13:19:32.819Z,36.29
2022-08-06T13:20:32.955Z,36.72